Terminal Aerodrome Forecast
Issued by NWS Jackson, MS

Home | Current Version | Previous Version | Text Only | Print | Product List | Glossary On
Versions: 1 2 3 4 5 6 7 8 9 10 11 12 13
604
FTUS44 KJAN 252321
TAFHBG
TAF
KHBG 252321Z 2600/2624 15006KT P6SM FEW008 SCT050
     FM260400 18004KT 5SM BR SCT007
     FM260700 19003KT 3SM BR BKN005
     FM260900 00000KT 1/2SM FG OVC003
     FM261400 20004KT 5SM BR BKN010
     FM261500 21005KT P6SM SCT250=

USA.gov is the U.S. government's official web portal to all federal, state and local government web resources and services.